createdAt,value
2022-08-11T00:00:59.725Z,0.00
2022-08-11T00:01:59.650Z,0.00
2022-08-11T00:02:59.616Z,0.00
2022-08-11T00:03:59.499Z,0.00
2022-08-11T00:04:59.430Z,0.00
2022-08-11T00:05:59.349Z,0.00
2022-08-11T00:06:59.278Z,0.00
2022-08-11T00:07:59.203Z,0.00
2022-08-11T00:08:59.131Z,0.00
2022-08-11T00:09:59.055Z,0.00
2022-08-11T00:10:58.985Z,0.00
2022-08-11T00:11:59.097Z,0.00
2022-08-11T00:12:58.833Z,0.00
2022-08-11T00:13:58.759Z,0.00
2022-08-11T00:14:58.680Z,0.00
2022-08-11T00:15:58.602Z,0.00
2022-08-11T00:16:58.530Z,0.00
2022-08-11T00:17:58.454Z,0.00
2022-08-11T00:18:59.439Z,0.00
2022-08-11T00:20:13.898Z,0.00
2022-08-11T00:20:58.226Z,0.00
2022-08-11T00:22:04.677Z,0.00
2022-08-11T00:22:58.077Z,0.00
2022-08-11T00:23:58.003Z,0.00
2022-08-11T00:25:02.180Z,0.00
2022-08-11T00:25:57.851Z,0.00
2022-08-11T00:26:57.777Z,0.00
2022-08-11T00:27:57.704Z,0.00
2022-08-11T00:28:57.627Z,0.00
2022-08-11T00:29:57.553Z,0.00
2022-08-11T00:30:57.480Z,0.00
2022-08-11T00:31:57.404Z,0.00
2022-08-11T00:32:57.334Z,0.00
2022-08-11T00:33:57.253Z,0.00
2022-08-11T00:35:54.594Z,0.00
2022-08-11T00:35:57.829Z,0.00
2022-08-11T00:36:57.029Z,0.00
2022-08-11T00:37:56.953Z,0.00
2022-08-11T00:38:56.874Z,0.00
2022-08-11T00:39:56.899Z,0.00
2022-08-11T00:40:56.726Z,0.00
2022-08-11T00:41:56.946Z,0.00
2022-08-11T00:42:56.574Z,0.00
2022-08-11T00:43:56.505Z,0.00
2022-08-11T00:44:56.430Z,0.00
2022-08-11T00:45:56.357Z,0.00
2022-08-11T00:46:56.281Z,0.00
2022-08-11T00:47:56.202Z,0.00
2022-08-11T00:48:56.121Z,0.00
2022-08-11T00:49:56.048Z,0.00
2022-08-11T00:50:55.976Z,0.00
2022-08-11T00:52:02.155Z,0.00
2022-08-11T00:52:55.819Z,0.00
2022-08-11T00:53:55.753Z,0.00
2022-08-11T00:54:55.671Z,0.00
2022-08-11T00:55:56.175Z,0.00
2022-08-11T00:56:55.523Z,0.00
2022-08-11T00:57:55.450Z,0.00
2022-08-11T00:58:55.374Z,0.00
2022-08-11T00:59:55.302Z,0.00
2022-08-11T01:00:55.320Z,0.00
2022-08-11T01:01:55.147Z,0.00
2022-08-11T01:02:55.077Z,0.00
2022-08-11T01:03:54.996Z,0.00
2022-08-11T01:04:55.899Z,0.00
2022-08-11T01:05:54.843Z,0.00
2022-08-11T01:06:54.775Z,0.00
2022-08-11T01:08:01.002Z,0.00
2022-08-11T01:08:54.628Z,0.00
2022-08-11T01:09:54.548Z,0.00
2022-08-11T01:10:54.473Z,0.00
2022-08-11T01:11:55.833Z,0.00
2022-08-11T01:12:54.317Z,0.00
2022-08-11T01:13:54.244Z,0.00
2022-08-11T01:14:54.172Z,0.00
2022-08-11T01:15:55.674Z,0.00
2022-08-11T01:16:54.021Z,0.00
2022-08-11T01:17:53.947Z,0.00
2022-08-11T01:18:53.871Z,0.00
2022-08-11T01:20:44.749Z,0.00
2022-08-11T01:20:53.724Z,0.00
2022-08-11T01:21:53.643Z,0.00
2022-08-11T01:22:53.570Z,0.00
2022-08-11T01:23:53.499Z,0.00
2022-08-11T01:24:53.417Z,0.00
2022-08-11T01:25:57.018Z,0.00
2022-08-11T01:26:53.274Z,0.00
2022-08-11T01:27:53.193Z,0.00
2022-08-11T01:28:53.123Z,0.00
2022-08-11T01:29:53.044Z,0.00
2022-08-11T01:30:54.318Z,0.00
2022-08-11T01:31:52.894Z,0.00
2022-08-11T01:32:52.819Z,0.00
2022-08-11T01:33:52.744Z,0.00
2022-08-11T01:34:52.672Z,0.00
2022-08-11T01:35:52.602Z,0.00
2022-08-11T01:36:56.962Z,0.00
2022-08-11T01:37:52.444Z,0.00
2022-08-11T01:38:52.368Z,0.00
2022-08-11T01:39:52.394Z,0.00
2022-08-11T01:40:52.214Z,0.00
2022-08-11T01:41:52.150Z,0.00
2022-08-11T01:42:52.063Z,0.00
2022-08-11T01:43:51.993Z,0.00
2022-08-11T01:44:51.914Z,0.00
2022-08-11T01:45:51.841Z,0.00
2022-08-11T01:46:51.768Z,0.00
2022-08-11T01:47:53.003Z,0.00
2022-08-11T01:48:51.616Z,0.00
2022-08-11T01:50:10.021Z,0.00
2022-08-11T01:50:51.469Z,0.00
2022-08-11T01:51:51.393Z,0.00
2022-08-11T01:52:51.316Z,0.00
2022-08-11T01:53:51.240Z,0.00
2022-08-11T01:54:51.166Z,0.00
2022-08-11T01:55:51.086Z,0.00
2022-08-11T01:56:51.012Z,0.00
2022-08-11T01:57:50.943Z,0.00
2022-08-11T01:58:50.871Z,0.00
2022-08-11T01:59:50.790Z,0.00
2022-08-11T02:00:50.742Z,0.00
2022-08-11T02:01:50.642Z,0.00
2022-08-11T02:02:50.562Z,0.00
2022-08-11T02:03:50.490Z,0.00
2022-08-11T02:04:50.415Z,0.00
2022-08-11T02:05:50.332Z,0.00
2022-08-11T02:06:50.258Z,0.00
2022-08-11T02:07:50.185Z,0.00
2022-08-11T02:08:50.624Z,0.00
2022-08-11T02:09:51.812Z,0.00
2022-08-11T02:10:50.803Z,0.00
2022-08-11T02:11:49.881Z,0.00
2022-08-11T02:12:52.581Z,0.00
2022-08-11T02:13:49.740Z,0.00
2022-08-11T02:15:04.672Z,0.00
2022-08-11T02:15:49.585Z,0.00
2022-08-11T02:16:49.508Z,0.00
2022-08-11T02:17:49.435Z,0.00
2022-08-11T02:18:49.355Z,0.00
2022-08-11T02:19:49.286Z,0.00
2022-08-11T02:20:49.202Z,0.00
2022-08-11T02:21:49.129Z,0.00
2022-08-11T02:22:49.057Z,0.00
2022-08-11T02:24:06.655Z,0.00
2022-08-11T02:24:48.907Z,0.00
2022-08-11T02:25:48.830Z,0.00
2022-08-11T02:26:48.756Z,0.00
2022-08-11T02:27:48.675Z,0.00
2022-08-11T02:28:48.600Z,0.00
2022-08-11T02:29:48.527Z,0.00
2022-08-11T02:30:48.453Z,0.00
2022-08-11T02:32:15.534Z,0.00
2022-08-11T02:32:48.301Z,0.00
2022-08-11T02:33:48.228Z,0.00
2022-08-11T02:35:00.235Z,0.00
2022-08-11T02:35:48.070Z,0.00
2022-08-11T02:36:47.995Z,0.00
2022-08-11T02:37:47.922Z,0.00
2022-08-11T02:38:47.851Z,0.00
2022-08-11T02:39:47.825Z,0.00
2022-08-11T02:40:47.693Z,0.00
2022-08-11T02:41:47.623Z,0.00
2022-08-11T02:42:48.083Z,0.00
2022-08-11T02:43:48.709Z,0.00
2022-08-11T02:44:47.391Z,0.00
2022-08-11T02:45:47.334Z,0.00
2022-08-11T02:46:47.240Z,0.00
2022-08-11T02:47:47.169Z,0.00
2022-08-11T02:48:47.097Z,0.00
2022-08-11T02:49:47.016Z,0.00
2022-08-11T02:50:46.939Z,0.00
2022-08-11T02:51:46.867Z,0.00
2022-08-11T02:52:46.791Z,0.00
2022-08-11T02:53:48.860Z,0.00
2022-08-11T02:54:46.637Z,0.00
2022-08-11T02:55:57.115Z,0.00
2022-08-11T02:56:46.483Z,0.00
2022-08-11T02:57:46.413Z,0.00
2022-08-11T02:58:46.335Z,0.00
2022-08-11T02:59:46.260Z,0.00
2022-08-11T03:00:46.186Z,0.00
2022-08-11T03:01:46.124Z,0.00
2022-08-11T03:02:46.033Z,0.00
2022-08-11T03:03:45.957Z,0.00
2022-08-11T03:04:45.889Z,0.00
2022-08-11T03:05:45.802Z,0.00
2022-08-11T03:06:45.727Z,0.00
2022-08-11T03:07:45.649Z,0.00
2022-08-11T03:08:45.578Z,0.00
2022-08-11T03:09:45.501Z,0.00
2022-08-11T03:10:45.422Z,0.00
2022-08-11T03:11:45.350Z,0.00
2022-08-11T03:12:47.187Z,0.00
2022-08-11T03:13:45.201Z,0.00
2022-08-11T03:14:45.120Z,0.00
2022-08-11T03:15:45.046Z,0.00
2022-08-11T03:16:44.974Z,0.00
2022-08-11T03:17:44.895Z,0.00
2022-08-11T03:18:44.815Z,0.00
2022-08-11T03:19:44.741Z,0.00
2022-08-11T03:20:44.669Z,0.00
2022-08-11T03:22:01.965Z,0.00
2022-08-11T03:22:44.513Z,0.00
2022-08-11T03:23:44.440Z,0.00
2022-08-11T03:24:44.360Z,0.00
2022-08-11T03:25:44.279Z,0.00
2022-08-11T03:26:44.210Z,0.00
2022-08-11T03:27:44.137Z,0.00
2022-08-11T03:28:44.056Z,0.00
2022-08-11T03:29:44.006Z,4.00
2022-08-11T03:30:43.905Z,0.00
2022-08-11T03:31:44.623Z,0.00
2022-08-11T03:32:43.756Z,4.00
2022-08-11T03:33:43.681Z,4.00
2022-08-11T03:34:43.602Z,0.00
2022-08-11T03:35:43.525Z,4.00
2022-08-11T03:36:55.744Z,4.00
2022-08-11T03:37:43.382Z,8.00
2022-08-11T03:38:43.300Z,4.00
2022-08-11T03:39:52.685Z,8.00
2022-08-11T03:40:43.146Z,8.00
2022-08-11T03:42:02.026Z,8.00
2022-08-11T03:42:42.996Z,12.00
2022-08-11T03:43:45.774Z,12.00
2022-08-11T03:44:42.840Z,12.00
2022-08-11T03:45:42.762Z,16.00
2022-08-11T03:46:42.691Z,16.00
2022-08-11T03:47:52.603Z,24.00
2022-08-11T03:48:42.533Z,24.00
2022-08-11T03:49:42.459Z,28.00
2022-08-11T03:50:42.388Z,32.00
2022-08-11T03:51:51.479Z,32.00
2022-08-11T03:52:42.231Z,40.00
2022-08-11T03:53:42.160Z,44.00
2022-08-11T03:54:42.083Z,48.00
2022-08-11T03:55:42.007Z,52.00
2022-08-11T03:56:41.943Z,60.00
2022-08-11T03:57:41.865Z,68.00
2022-08-11T03:58:46.241Z,72.00
2022-08-11T03:59:41.709Z,80.00
2022-08-11T04:00:41.627Z,88.00
2022-08-11T04:01:41.595Z,92.00
2022-08-11T04:02:41.476Z,104.00
2022-08-11T04:03:41.416Z,112.00
2022-08-11T04:04:41.322Z,120.00
2022-08-11T04:05:41.244Z,128.00
2022-08-11T04:06:41.191Z,140.00
2022-08-11T04:07:41.091Z,148.00
2022-08-11T04:08:41.015Z,156.00
2022-08-11T04:09:40.941Z,168.00
2022-08-11T04:10:40.865Z,180.00
2022-08-11T04:11:40.790Z,188.00
2022-08-11T04:12:45.526Z,196.00
2022-08-11T04:13:40.636Z,208.00
2022-08-11T04:14:40.561Z,220.00
2022-08-11T04:15:40.483Z,228.00
2022-08-11T04:16:40.407Z,240.00
2022-08-11T04:17:40.333Z,252.00
2022-08-11T04:18:40.256Z,264.00
2022-08-11T04:19:40.179Z,276.00
2022-08-11T04:20:40.106Z,288.00
2022-08-11T04:21:40.036Z,304.00
2022-08-11T04:22:40.071Z,312.00
2022-08-11T04:24:12.966Z,324.00
2022-08-11T04:24:40.020Z,336.00
2022-08-11T04:25:57.899Z,352.00
2022-08-11T04:26:39.649Z,364.00
2022-08-11T04:27:39.574Z,372.00
2022-08-11T04:28:49.716Z,388.00
2022-08-11T04:30:03.202Z,396.00
2022-08-11T04:30:41.290Z,408.00
2022-08-11T04:31:52.042Z,424.00
2022-08-11T04:32:39.351Z,436.00
2022-08-11T04:33:39.114Z,444.00
2022-08-11T04:34:39.043Z,456.00
2022-08-11T04:35:38.965Z,464.00
2022-08-11T04:36:38.888Z,476.00
2022-08-11T04:37:38.812Z,488.00
2022-08-11T04:38:38.734Z,496.00
2022-08-11T04:39:38.709Z,508.00
2022-08-11T04:40:38.605Z,520.00
2022-08-11T04:41:38.502Z,528.00
2022-08-11T04:42:38.559Z,536.00
2022-08-11T04:43:38.356Z,548.00
2022-08-11T04:44:38.278Z,560.00
2022-08-11T04:45:38.197Z,572.00
2022-08-11T04:46:38.122Z,580.00
2022-08-11T04:48:01.793Z,592.00
2022-08-11T04:48:37.975Z,600.00
2022-08-11T04:49:37.894Z,612.00
2022-08-11T04:50:37.826Z,624.00
2022-08-11T04:51:37.751Z,632.00
2022-08-11T04:52:38.355Z,640.00
2022-08-11T04:53:37.593Z,652.00
2022-08-11T04:54:37.519Z,660.00
2022-08-11T04:55:37.851Z,672.00
2022-08-11T04:56:37.372Z,680.00
2022-08-11T04:57:37.285Z,692.00
2022-08-11T04:58:37.215Z,704.00
2022-08-11T04:59:37.134Z,712.00
2022-08-11T05:00:37.058Z,724.00
2022-08-11T05:01:37.729Z,736.00
2022-08-11T05:02:37.068Z,748.00
2022-08-11T05:03:36.829Z,756.00
2022-08-11T05:04:36.755Z,764.00
2022-08-11T05:05:36.678Z,772.00
2022-08-11T05:06:36.607Z,784.00
2022-08-11T05:07:36.529Z,792.00
2022-08-11T05:08:36.452Z,800.00
2022-08-11T05:09:36.374Z,808.00
2022-08-11T05:10:39.862Z,816.00
2022-08-11T05:11:36.224Z,828.00
2022-08-11T05:12:36.281Z,836.00
2022-08-11T05:13:36.066Z,844.00
2022-08-11T05:14:35.995Z,852.00
2022-08-11T05:15:43.063Z,860.00
2022-08-11T05:16:35.844Z,868.00
2022-08-11T05:17:35.775Z,876.00
2022-08-11T05:18:35.691Z,880.00
2022-08-11T05:19:35.617Z,884.00
2022-08-11T05:20:35.537Z,896.00
2022-08-11T05:21:44.908Z,900.00
2022-08-11T05:22:35.391Z,908.00
2022-08-11T05:23:35.309Z,912.00
2022-08-11T05:24:42.416Z,920.00
2022-08-11T05:26:47.917Z,936.00
2022-08-11T05:27:38.991Z,940.00
2022-08-11T05:28:38.922Z,948.00
2022-08-11T05:29:38.836Z,956.00
2022-08-11T05:30:38.780Z,960.00
2022-08-11T05:31:38.689Z,964.00
2022-08-11T05:32:38.737Z,972.00
2022-08-11T05:33:38.540Z,1000.00
2022-08-11T05:34:38.459Z,1080.00
2022-08-11T05:36:01.668Z,1064.00
2022-08-11T05:36:38.304Z,1088.00
2022-08-11T05:37:38.230Z,1068.00
2022-08-11T05:38:38.154Z,996.00
2022-08-11T05:39:38.117Z,996.00
2022-08-11T05:40:38.005Z,1004.00
2022-08-11T05:41:37.933Z,1004.00
2022-08-11T05:42:37.854Z,1008.00
2022-08-11T05:43:37.777Z,1016.00
2022-08-11T05:44:37.710Z,1020.00
2022-08-11T05:45:54.820Z,1024.00
2022-08-11T05:46:37.550Z,1032.00
2022-08-11T05:47:37.472Z,1036.00
2022-08-11T05:48:37.401Z,1040.00
2022-08-11T05:49:37.322Z,1044.00
2022-08-11T05:50:37.342Z,1052.00
2022-08-11T05:51:37.168Z,1056.00
2022-08-11T05:52:41.555Z,1052.00
2022-08-11T05:53:45.905Z,1064.00
2022-08-11T05:54:36.945Z,1068.00
2022-08-11T05:55:36.871Z,1072.00
2022-08-11T05:56:36.792Z,1080.00
2022-08-11T05:57:50.110Z,1032.00
2022-08-11T05:58:41.375Z,1048.00
2022-08-11T05:59:36.564Z,1056.00
2022-08-11T06:00:36.492Z,1064.00
2022-08-11T06:01:36.460Z,1100.00
2022-08-11T06:02:36.418Z,1100.00
2022-08-11T06:03:36.264Z,1112.00
2022-08-11T06:04:36.190Z,1120.00
2022-08-11T06:05:38.380Z,1132.00
2022-08-11T06:06:36.036Z,1080.00
2022-08-11T06:07:48.867Z,1016.00
2022-08-11T06:08:35.890Z,1084.00
2022-08-11T06:09:35.810Z,1048.00
2022-08-11T06:10:35.735Z,1040.00
2022-08-11T06:11:43.684Z,1028.00
2022-08-11T06:12:35.583Z,1104.00
2022-08-11T06:13:35.509Z,1104.00
2022-08-11T06:14:35.432Z,1144.00
2022-08-11T06:15:35.358Z,1032.00
2022-08-11T06:16:35.286Z,1172.00
2022-08-11T06:17:38.439Z,1212.00
2022-08-11T06:18:35.132Z,1220.00
2022-08-11T06:19:35.065Z,1224.00
2022-08-11T06:20:34.983Z,1216.00
2022-08-11T06:21:34.930Z,1220.00
2022-08-11T06:22:34.834Z,1200.00
2022-08-11T06:23:36.184Z,1200.00
2022-08-11T06:24:34.678Z,1144.00
2022-08-11T06:25:34.610Z,1232.00
2022-08-11T06:26:49.390Z,1268.00
2022-08-11T06:27:34.454Z,1276.00
2022-08-11T06:28:34.382Z,1296.00
2022-08-11T06:29:38.119Z,1308.00
2022-08-11T06:30:34.232Z,1308.00
2022-08-11T06:31:34.155Z,1244.00
2022-08-11T06:32:34.086Z,1236.00
2022-08-11T06:33:34.000Z,1244.00
2022-08-11T06:34:33.930Z,1228.00
2022-08-11T06:35:33.854Z,1252.00
2022-08-11T06:36:33.781Z,1204.00
2022-08-11T06:37:36.466Z,1204.00
2022-08-11T06:38:33.626Z,1224.00
2022-08-11T06:39:33.581Z,1228.00
2022-08-11T06:40:33.479Z,1228.00
2022-08-11T06:41:33.404Z,1244.00
2022-08-11T06:42:33.380Z,1236.00
2022-08-11T06:43:33.247Z,1248.00
2022-08-11T06:44:33.181Z,1244.00
2022-08-11T06:45:33.105Z,1280.00
2022-08-11T06:46:33.024Z,1236.00
2022-08-11T06:47:32.950Z,1164.00
2022-08-11T06:48:32.879Z,1180.00
2022-08-11T06:49:32.814Z,1172.00
2022-08-11T06:50:32.736Z,1184.00
2022-08-11T06:51:32.767Z,1236.00
2022-08-11T06:52:35.224Z,1260.00
2022-08-11T06:53:32.503Z,1232.00
2022-08-11T06:54:32.435Z,1216.00
2022-08-11T06:55:58.039Z,1188.00
2022-08-11T06:56:32.277Z,1188.00
2022-08-11T06:57:32.221Z,1200.00
2022-08-11T06:58:32.132Z,1252.00
2022-08-11T06:59:32.059Z,1288.00
2022-08-11T07:00:33.219Z,1292.00
2022-08-11T07:01:31.927Z,1296.00
2022-08-11T07:02:32.019Z,1304.00
2022-08-11T07:03:31.755Z,1316.00
2022-08-11T07:04:31.679Z,1340.00
2022-08-11T07:05:31.605Z,1360.00
2022-08-11T07:06:50.247Z,1364.00
2022-08-11T07:07:31.454Z,1372.00
2022-08-11T07:08:34.022Z,1352.00
2022-08-11T07:09:31.301Z,1352.00
2022-08-11T07:10:31.232Z,1372.00
2022-08-11T07:11:31.159Z,1372.00
2022-08-11T07:12:31.081Z,1376.00
2022-08-11T07:13:39.375Z,1376.00
2022-08-11T07:14:35.046Z,1376.00
2022-08-11T07:16:11.761Z,1368.00
2022-08-11T07:16:30.784Z,1368.00
2022-08-11T07:17:30.721Z,1300.00
2022-08-11T07:18:30.637Z,1300.00
2022-08-11T07:19:30.561Z,1188.00
2022-08-11T07:20:30.481Z,1308.00
2022-08-11T07:22:00.243Z,1348.00
2022-08-11T07:22:30.471Z,1296.00
2022-08-11T07:23:30.256Z,1356.00
2022-08-11T07:24:58.638Z,1368.00
2022-08-11T07:25:30.117Z,1376.00
2022-08-11T07:26:30.038Z,1380.00
2022-08-11T07:27:34.974Z,1384.00
2022-08-11T07:28:29.886Z,1380.00
2022-08-11T07:29:30.331Z,1392.00
2022-08-11T07:30:29.742Z,1392.00
2022-08-11T07:31:29.668Z,1400.00
2022-08-11T07:32:29.617Z,1408.00
2022-08-11T07:34:06.376Z,1412.00
2022-08-11T07:34:29.439Z,1236.00
2022-08-11T07:35:29.366Z,1380.00
2022-08-11T07:36:29.292Z,1412.00
2022-08-11T07:37:29.221Z,1424.00
2022-08-11T07:38:29.142Z,1428.00
2022-08-11T07:39:29.172Z,1428.00
2022-08-11T07:40:28.996Z,1428.00
2022-08-11T07:41:28.924Z,1428.00
2022-08-11T07:42:28.900Z,1408.00
2022-08-11T07:43:28.773Z,1416.00
2022-08-11T07:44:34.403Z,1404.00
2022-08-11T07:45:28.625Z,1408.00
2022-08-11T07:46:28.551Z,1400.00
2022-08-11T07:47:28.478Z,1424.00
2022-08-11T07:48:28.404Z,1464.00
2022-08-11T07:49:28.329Z,1472.00
2022-08-11T07:50:28.256Z,1484.00
2022-08-11T07:51:28.178Z,1500.00
2022-08-11T07:52:28.109Z,1512.00
2022-08-11T07:53:28.026Z,1500.00
2022-08-11T07:54:28.155Z,1476.00
2022-08-11T07:55:51.114Z,1460.00
2022-08-11T07:56:29.599Z,1444.00
2022-08-11T07:57:57.013Z,1436.00
2022-08-11T07:58:30.058Z,1432.00
2022-08-11T08:00:00.336Z,1428.00
2022-08-11T08:00:30.054Z,1428.00
2022-08-11T08:01:27.461Z,1424.00
2022-08-11T08:02:28.969Z,1420.00
2022-08-11T08:03:27.289Z,1412.00
2022-08-11T08:04:27.213Z,1416.00
2022-08-11T08:05:27.140Z,1412.00
2022-08-11T08:06:35.905Z,1408.00
2022-08-11T08:07:26.997Z,1408.00
2022-08-11T08:08:26.920Z,1408.00
2022-08-11T08:09:26.842Z,1416.00
2022-08-11T08:10:26.770Z,1412.00
2022-08-11T08:11:27.423Z,1408.00
2022-08-11T08:12:26.623Z,1416.00
2022-08-11T08:13:26.550Z,1412.00
2022-08-11T08:14:26.475Z,1408.00
2022-08-11T08:15:26.402Z,1412.00
2022-08-11T08:16:26.328Z,1420.00
2022-08-11T08:17:26.253Z,1424.00
2022-08-11T08:18:27.731Z,1428.00
2022-08-11T08:19:26.104Z,1428.00
2022-08-11T08:20:26.029Z,1428.00
2022-08-11T08:21:25.957Z,1428.00
2022-08-11T08:22:37.732Z,1428.00
2022-08-11T08:23:25.806Z,1432.00
2022-08-11T08:24:25.737Z,1436.00
2022-08-11T08:25:25.659Z,1432.00
2022-08-11T08:26:25.588Z,1444.00
2022-08-11T08:27:25.516Z,1440.00
2022-08-11T08:28:29.030Z,1444.00
2022-08-11T08:29:25.385Z,1444.00
2022-08-11T08:30:25.298Z,1448.00
2022-08-11T08:31:25.226Z,1448.00
2022-08-11T08:32:25.148Z,1456.00
2022-08-11T08:33:25.074Z,1460.00
2022-08-11T08:34:25.008Z,1460.00
2022-08-11T08:35:27.293Z,1460.00
2022-08-11T08:36:24.852Z,1456.00
2022-08-11T08:37:46.625Z,1456.00
2022-08-11T08:38:24.703Z,1456.00
2022-08-11T08:39:24.676Z,1464.00
2022-08-11T08:40:24.560Z,1468.00
2022-08-11T08:41:24.481Z,1464.00
2022-08-11T08:42:24.413Z,1468.00
2022-08-11T08:43:24.340Z,1472.00
2022-08-11T08:44:41.447Z,1476.00
2022-08-11T08:45:24.187Z,1484.00
2022-08-11T08:46:24.114Z,1484.00
2022-08-11T08:47:42.101Z,1488.00
2022-08-11T08:48:23.968Z,1492.00
2022-08-11T08:49:23.890Z,1492.00
2022-08-11T08:50:27.808Z,1488.00
2022-08-11T08:51:23.751Z,1484.00
2022-08-11T08:52:39.180Z,1484.00
2022-08-11T08:53:23.601Z,1484.00
2022-08-11T08:54:23.530Z,1488.00
2022-08-11T08:55:23.458Z,1504.00
2022-08-11T08:56:23.382Z,1496.00
2022-08-11T08:57:23.312Z,1488.00
2022-08-11T08:58:23.237Z,1480.00
2022-08-11T08:59:23.160Z,1484.00
2022-08-11T09:00:23.856Z,1484.00
2022-08-11T09:01:23.101Z,1488.00
2022-08-11T09:02:34.090Z,1496.00
2022-08-11T09:03:41.040Z,1512.00
2022-08-11T09:04:22.795Z,1520.00
2022-08-11T09:05:22.724Z,1520.00
2022-08-11T09:06:22.655Z,1512.00
2022-08-11T09:07:22.578Z,1516.00
2022-08-11T09:08:22.503Z,1524.00
2022-08-11T09:09:22.435Z,1528.00
2022-08-11T09:10:22.354Z,1528.00
2022-08-11T09:11:22.288Z,1524.00
2022-08-11T09:12:38.237Z,1524.00
2022-08-11T09:13:22.140Z,1536.00
2022-08-11T09:14:22.062Z,1548.00
2022-08-11T09:15:21.991Z,1556.00
2022-08-11T09:16:21.917Z,1568.00
2022-08-11T09:17:21.846Z,1572.00
2022-08-11T09:18:21.772Z,1572.00
2022-08-11T09:19:21.703Z,1568.00
2022-08-11T09:20:21.629Z,1560.00
2022-08-11T09:21:37.129Z,1556.00
2022-08-11T09:22:21.481Z,1560.00
2022-08-11T09:24:26.103Z,1556.00
2022-08-11T09:25:21.268Z,1552.00
2022-08-11T09:26:21.188Z,1564.00
2022-08-11T09:27:21.118Z,1572.00
2022-08-11T09:28:21.040Z,1584.00
2022-08-11T09:29:20.968Z,1588.00
2022-08-11T09:30:20.897Z,1596.00
2022-08-11T09:31:21.571Z,1592.00
2022-08-11T09:32:20.749Z,1608.00
2022-08-11T09:33:20.675Z,1612.00
2022-08-11T09:34:20.608Z,1612.00
2022-08-11T09:35:20.528Z,1612.00
2022-08-11T09:36:20.462Z,1608.00
2022-08-11T09:37:53.829Z,1604.00
2022-08-11T09:38:20.321Z,1600.00
2022-08-11T09:39:20.271Z,1604.00
2022-08-11T09:40:20.165Z,1604.00
2022-08-11T09:41:20.098Z,1604.00
2022-08-11T09:42:23.099Z,1608.00
2022-08-11T09:43:19.944Z,1616.00
2022-08-11T09:44:19.879Z,1624.00
2022-08-11T09:45:19.808Z,1632.00
2022-08-11T09:46:19.725Z,1640.00
2022-08-11T09:47:19.658Z,1640.00
2022-08-11T09:48:19.589Z,1640.00
2022-08-11T09:49:19.521Z,1640.00
2022-08-11T09:50:19.484Z,1640.00
2022-08-11T09:51:19.368Z,1648.00
2022-08-11T09:52:19.290Z,1656.00
2022-08-11T09:53:38.189Z,1668.00
2022-08-11T09:54:19.148Z,1680.00
2022-08-11T09:55:19.075Z,1684.00
2022-08-11T09:56:19.004Z,1696.00
2022-08-11T09:57:18.932Z,1708.00
2022-08-11T09:58:41.743Z,1724.00
2022-08-11T09:59:18.787Z,1748.00
2022-08-11T10:00:18.753Z,1768.00
2022-08-11T10:01:18.680Z,1776.00
2022-08-11T10:02:18.578Z,1784.00
2022-08-11T10:03:18.494Z,1796.00
2022-08-11T10:04:18.419Z,1804.00
2022-08-11T10:05:18.347Z,1804.00
2022-08-11T10:06:18.277Z,1804.00
2022-08-11T10:07:18.210Z,1812.00
2022-08-11T10:08:18.135Z,1828.00
2022-08-11T10:09:18.063Z,1844.00
2022-08-11T10:10:18.046Z,1852.00
2022-08-11T10:11:17.920Z,1864.00
2022-08-11T10:12:17.847Z,1876.00
2022-08-11T10:13:43.982Z,1900.00
2022-08-11T10:14:34.595Z,1920.00
2022-08-11T10:15:17.627Z,1940.00
2022-08-11T10:16:17.557Z,1956.00
2022-08-11T10:17:17.486Z,1968.00
2022-08-11T10:18:17.409Z,1992.00
2022-08-11T10:19:17.339Z,2004.00
2022-08-11T10:20:17.262Z,2024.00
2022-08-11T10:21:17.189Z,2040.00
2022-08-11T10:22:17.124Z,2056.00
2022-08-11T10:23:17.078Z,2068.00
2022-08-11T10:24:16.970Z,2084.00
2022-08-11T10:25:19.955Z,2100.00
2022-08-11T10:26:16.832Z,2120.00
2022-08-11T10:27:16.764Z,2152.00
2022-08-11T10:28:36.388Z,2196.00
2022-08-11T10:29:16.818Z,2296.00
2022-08-11T10:30:16.600Z,2332.00
2022-08-11T10:31:16.681Z,2352.00
2022-08-11T10:32:16.403Z,2356.00
2022-08-11T10:33:18.973Z,2368.00
2022-08-11T10:34:16.256Z,2372.00
2022-08-11T10:35:16.177Z,2388.00
2022-08-11T10:36:17.030Z,2400.00
2022-08-11T10:37:16.033Z,2408.00
2022-08-11T10:38:16.175Z,2412.00
2022-08-11T10:39:15.927Z,2432.00
2022-08-11T10:40:15.957Z,2448.00
2022-08-11T10:41:15.748Z,2472.00
2022-08-11T10:42:29.997Z,2500.00
2022-08-11T10:43:56.815Z,2520.00
2022-08-11T10:44:15.535Z,2548.00
2022-08-11T10:45:15.459Z,2564.00
2022-08-11T10:46:15.394Z,2584.00
2022-08-11T10:47:15.321Z,2640.00
2022-08-11T10:48:15.710Z,2676.00
2022-08-11T10:49:15.172Z,2704.00
2022-08-11T10:50:15.103Z,2728.00
2022-08-11T10:51:15.042Z,2752.00
2022-08-11T10:52:14.959Z,2796.00
2022-08-11T10:53:14.889Z,2808.00
2022-08-11T10:54:14.820Z,2820.00
2022-08-11T10:55:14.742Z,2832.00
2022-08-11T10:56:14.674Z,2780.00
2022-08-11T10:57:14.605Z,2852.00
2022-08-11T10:58:14.539Z,2932.00
2022-08-11T10:59:14.462Z,2960.00
2022-08-11T11:00:14.385Z,2984.00
2022-08-11T11:01:14.314Z,3052.00
2022-08-11T11:02:14.243Z,3160.00
2022-08-11T11:03:22.903Z,3148.00
2022-08-11T11:04:14.101Z,3288.00
2022-08-11T11:05:14.031Z,3324.00
2022-08-11T11:06:28.257Z,3288.00
2022-08-11T11:07:13.894Z,3304.00
2022-08-11T11:08:13.816Z,3332.00
2022-08-11T11:09:13.754Z,3328.00
2022-08-11T11:10:13.678Z,3300.00
2022-08-11T11:11:16.374Z,3304.00
2022-08-11T11:12:13.531Z,3340.00
2022-08-11T11:13:13.458Z,3324.00
2022-08-11T11:14:13.390Z,3328.00
2022-08-11T11:15:17.475Z,3324.00
2022-08-11T11:16:13.246Z,3332.00
2022-08-11T11:17:14.196Z,3304.00
2022-08-11T11:18:13.107Z,3304.00
2022-08-11T11:19:13.038Z,3276.00
2022-08-11T11:20:34.375Z,3288.00
2022-08-11T11:21:12.893Z,3280.00
2022-08-11T11:22:12.817Z,2896.00
2022-08-11T11:23:12.751Z,3320.00
2022-08-11T11:24:12.684Z,3384.00
2022-08-11T11:25:12.611Z,3400.00
2022-08-11T11:26:12.539Z,3392.00
2022-08-11T11:27:12.492Z,3524.00
2022-08-11T11:28:12.393Z,3540.00
2022-08-11T11:29:12.325Z,3656.00
2022-08-11T11:30:12.257Z,3684.00
2022-08-11T11:31:12.179Z,3788.00
2022-08-11T11:32:12.119Z,3764.00
2022-08-11T11:33:12.044Z,3668.00
2022-08-11T11:34:13.042Z,3620.00
2022-08-11T11:35:11.923Z,3632.00
2022-08-11T11:36:11.834Z,3744.00
2022-08-11T11:37:11.763Z,3772.00
2022-08-11T11:38:13.935Z,3696.00
2022-08-11T11:39:11.661Z,3616.00
2022-08-11T11:40:11.563Z,3564.00
2022-08-11T11:41:11.473Z,3572.00
2022-08-11T11:42:11.402Z,3552.00
2022-08-11T11:43:11.339Z,3564.00
2022-08-11T11:44:11.265Z,3560.00
2022-08-11T11:45:24.057Z,3536.00
2022-08-11T11:46:11.121Z,3512.00
2022-08-11T11:47:11.058Z,3536.00
2022-08-11T11:48:10.983Z,3548.00
2022-08-11T11:49:16.898Z,3564.00
2022-08-11T11:50:10.840Z,3588.00
2022-08-11T11:51:10.772Z,3588.00
2022-08-11T11:52:10.704Z,3592.00
2022-08-11T11:53:10.633Z,3596.00
2022-08-11T11:54:10.690Z,3628.00
2022-08-11T11:55:10.523Z,3636.00
2022-08-11T11:56:10.419Z,3648.00
2022-08-11T11:57:10.352Z,3696.00
2022-08-11T11:58:10.275Z,3704.00
2022-08-11T11:59:11.219Z,3716.00
2022-08-11T12:00:10.139Z,3740.00
2022-08-11T12:01:10.072Z,3760.00
2022-08-11T12:02:12.157Z,3804.00
2022-08-11T12:03:09.956Z,3860.00
2022-08-11T12:04:09.855Z,3908.00
2022-08-11T12:05:09.789Z,3956.00
2022-08-11T12:06:09.715Z,4012.00
2022-08-11T12:07:09.651Z,4040.00
2022-08-11T12:08:12.862Z,4072.00
2022-08-11T12:09:09.504Z,4116.00
2022-08-11T12:10:09.436Z,4148.00
2022-08-11T12:11:09.363Z,4228.00
2022-08-11T12:12:09.299Z,4284.00
2022-08-11T12:13:09.225Z,4348.00
2022-08-11T12:14:10.472Z,4424.00
2022-08-11T12:15:09.090Z,4460.00
2022-08-11T12:16:33.539Z,4516.00
2022-08-11T12:17:08.944Z,4492.00
2022-08-11T12:18:08.880Z,4508.00
2022-08-11T12:19:08.809Z,4592.00
2022-08-11T12:20:31.646Z,4424.00
2022-08-11T12:21:08.667Z,4560.00
2022-08-11T12:22:08.603Z,4896.00
2022-08-11T12:23:08.534Z,5092.00
2022-08-11T12:24:08.455Z,5104.00
2022-08-11T12:25:08.396Z,5124.00
2022-08-11T12:27:15.935Z,5088.00
2022-08-11T12:28:08.181Z,4648.00
2022-08-11T12:29:08.109Z,5484.00
2022-08-11T12:30:08.063Z,6264.00
2022-08-11T12:31:07.971Z,6556.00
2022-08-11T12:32:07.907Z,6340.00